Time;durP1;ratioP1;P1;durP2;ratioP2;P2;SDS_P1;SDS_P2;PMS_P1;PMS_P2;Temp;Humidity;BMP_temperature;BMP_pressure;BME280_temperature;BME280_humidity;BME280_pressure;Samples;Min_cycle;Max_cycle;Signal;HPM_P1;HPM_P2
2023/05/26 00:02:10;;;;;;;14.00;10.20;;;12.00;99.90;;;;;;5093892;28;20036;-72
2023/05/26 00:04:36;;;;;;;18.63;10.30;;;12.00;99.90;;;;;;5076102;28;20035;-72
2023/05/26 00:07:01;;;;;;;17.35;10.13;;;12.00;99.90;;;;;;5094483;28;20024;-72
2023/05/26 00:09:27;;;;;;;14.55;9.98;;;12.00;99.90;;;;;;5076623;28;20024;-73
2023/05/26 00:11:53;;;;;;;13.60;9.88;;;12.00;99.90;;;;;;5076197;28;20032;-72
2023/05/26 00:14:18;;;;;;;16.70;10.25;;;11.90;99.90;;;;;;5076069;28;20062;-73
2023/05/26 00:16:44;;;;;;;14.45;10.30;;;11.90;99.90;;;;;;5094162;28;20024;-72
2023/05/26 00:19:11;;;;;;;12.52;9.63;;;11.90;99.90;;;;;;5075880;28;20098;-72
2023/05/26 00:21:38;;;;;;;18.90;10.75;;;11.90;99.90;;;;;;5076094;28;20408;-72
2023/05/26 00:24:05;;;;;;;14.20;10.48;;;11.90;99.90;;;;;;5094293;28;20111;-72
2023/05/26 00:26:31;;;;;;;16.13;11.32;;;11.90;99.90;;;;;;5075592;28;20061;-72
2023/05/26 00:28:56;;;;;;;13.52;10.95;;;11.80;99.90;;;;;;5075888;28;20024;-72
2023/05/26 00:31:22;;;;;;;17.77;10.40;;;11.80;99.90;;;;;;5075781;28;20035;-72
2023/05/26 00:33:48;;;;;;;18.30;10.70;;;11.80;99.90;;;;;;5075932;28;20073;-72
2023/05/26 00:36:14;;;;;;;14.27;10.48;;;11.80;99.90;;;;;;5093528;28;20435;-72
2023/05/26 00:38:39;;;;;;;17.27;10.18;;;11.70;99.90;;;;;;5093962;28;20074;-72
2023/05/26 00:41:05;;;;;;;19.70;10.85;;;11.70;99.90;;;;;;5093479;28;20039;-72
2023/05/26 00:43:31;;;;;;;14.98;10.85;;;11.70;99.90;;;;;;5075783;28;20480;-72
2023/05/26 00:45:56;;;;;;;16.27;11.38;;;11.70;99.90;;;;;;5075773;28;20020;-72
2023/05/26 00:48:22;;;;;;;15.15;10.52;;;11.70;99.90;;;;;;5075706;28;20031;-72
2023/05/26 00:50:48;;;;;;;18.35;11.73;;;11.70;99.90;;;;;;5075673;28;20028;-72
2023/05/26 00:53:15;;;;;;;17.17;11.35;;;11.70;99.90;;;;;;5075546;28;20039;-72
2023/05/26 00:55:42;;;;;;;18.15;11.38;;;11.70;99.90;;;;;;5094705;28;20052;-72
2023/05/26 00:58:08;;;;;;;17.20;11.60;;;11.70;99.90;;;;;;5078363;28;20024;-72
2023/05/26 01:00:33;;;;;;;20.27;12.35;;;11.60;99.90;;;;;;5076570;28;20514;-72
2023/05/26 01:02:59;;;;;;;18.83;12.73;;;11.60;99.90;;;;;;5075615;28;20028;-72
2023/05/26 01:05:25;;;;;;;17.70;11.52;;;11.60;99.90;;;;;;5075963;28;20110;-72
2023/05/26 01:07:51;;;;;;;19.80;12.70;;;11.70;99.90;;;;;;5075469;28;20035;-72
2023/05/26 01:10:17;;;;;;;18.98;13.18;;;11.70;99.90;;;;;;5075459;28;20024;-72
2023/05/26 01:13:01;;;;;;;21.55;13.02;;;11.70;99.90;;;;;;5093501;28;20465;-72
2023/05/26 01:15:33;;;;;;;18.75;13.55;;;11.70;99.90;;;;;;5079198;28;20138;-72
2023/05/26 01:18:05;;;;;;;20.80;14.05;;;11.80;99.90;;;;;;5097750;28;20020;-72
2023/05/26 01:20:59;;;;;;;21.63;13.63;;;11.80;99.90;;;;;;5078996;28;20106;-72
2023/05/26 01:23:34;;;;;;;22.48;13.52;;;11.80;99.90;;;;;;5078315;28;20036;-72
2023/05/26 01:26:02;;;;;;;20.55;12.65;;;11.80;99.90;;;;;;5097490;28;20027;-72
2023/05/26 01:28:29;;;;;;;24.23;13.63;;;11.80;99.90;;;;;;5097183;28;20389;-72
2023/05/26 01:30:57;;;;;;;23.65;14.25;;;11.80;99.90;;;;;;5079010;28;20480;-73
2023/05/26 01:33:23;;;;;;;22.42;13.70;;;11.80;99.90;;;;;;5097047;28;20025;-73
2023/05/26 01:35:48;;;;;;;20.65;13.63;;;11.80;99.90;;;;;;5078871;28;20028;-72
2023/05/26 01:38:14;;;;;;;22.13;15.20;;;11.80;99.90;;;;;;5078858;28;20024;-72
2023/05/26 01:40:42;;;;;;;25.08;14.43;;;11.80;99.90;;;;;;5078663;28;20493;-72
2023/05/26 01:43:31;;;;;;;24.38;14.07;;;11.80;99.90;;;;;;5096967;28;20489;-72
2023/05/26 01:46:05;;;;;;;26.05;13.18;;;11.80;99.90;;;;;;5078394;28;20021;-72
2023/05/26 01:48:34;;;;;;;20.33;12.90;;;11.80;99.90;;;;;;5096822;28;20032;-72
2023/05/26 01:51:02;;;;;;;18.48;13.60;;;11.80;99.90;;;;;;5078862;28;20024;-72
2023/05/26 01:53:31;;;;;;;20.45;12.50;;;11.70;99.90;;;;;;5078737;28;20028;-72
2023/05/26 01:55:58;;;;;;;24.08;13.90;;;11.70;99.90;;;;;;5078529;28;20028;-72
2023/05/26 01:58:26;;;;;;;20.25;13.82;;;11.70;99.90;;;;;;5078334;28;20081;-73
2023/05/26 02:00:54;;;;;;;22.65;14.50;;;11.70;99.90;;;;;;5078503;28;20039;-72
2023/05/26 02:03:20;;;;;;;23.73;14.43;;;11.60;99.90;;;;;;5078601;28;20038;-72
2023/05/26 02:05:46;;;;;;;22.98;14.57;;;11.60;99.90;;;;;;5078364;28;20082;-72
2023/05/26 02:08:12;;;;;;;24.00;15.75;;;11.60;99.90;;;;;;5096709;28;20458;-72
2023/05/26 02:10:39;;;;;;;27.98;16.90;;;11.60;99.90;;;;;;5096653;28;20039;-73
2023/05/26 02:13:05;;;;;;;25.25;15.82;;;11.60;99.90;;;;;;5078148;28;20024;-72
2023/05/26 02:15:31;;;;;;;22.40;14.73;;;11.60;99.90;;;;;;5078260;28;20062;-72
2023/05/26 02:17:57;;;;;;;22.75;15.10;;;11.60;99.90;;;;;;5078010;28;20464;-72
2023/05/26 02:20:26;;;;;;;25.42;16.08;;;11.60;99.90;;;;;;5096202;28;20099;-72
2023/05/26 02:22:52;;;;;;;24.73;15.85;;;11.60;99.90;;;;;;5078022;28;20040;-72
2023/05/26 02:25:18;;;;;;;26.27;17.20;;;11.60;99.90;;;;;;5077837;28;20043;-73
2023/05/26 02:27:44;;;;;;;23.85;15.43;;;11.50;99.90;;;;;;5078107;28;20024;-72
2023/05/26 02:30:10;;;;;;;26.15;17.00;;;11.50;99.90;;;;;;5095980;28;20476;-72
2023/05/26 02:32:37;;;;;;;23.40;15.63;;;11.50;99.90;;;;;;5095948;28;20469;-72
2023/05/26 02:35:06;;;;;;;28.73;17.98;;;11.50;99.90;;;;;;5095925;28;20373;-73
2023/05/26 02:37:32;;;;;;;28.73;17.65;;;11.50;99.90;;;;;;5077693;28;20484;-72
2023/05/26 02:39:58;;;;;;;27.60;18.23;;;11.50;99.90;;;;;;5077717;28;20024;-72
2023/05/26 02:42:23;;;;;;;28.05;16.95;;;11.50;99.90;;;;;;5078011;28;20093;-73
2023/05/26 02:44:50;;;;;;;28.88;18.02;;;11.50;99.90;;;;;;5077563;28;20027;-72
2023/05/26 02:47:15;;;;;;;29.30;18.55;;;11.50;99.90;;;;;;5077570;28;20046;-72
2023/05/26 02:49:42;;;;;;;37.30;18.17;;;11.40;99.90;;;;;;5077627;28;20020;-72
2023/05/26 02:52:08;;;;;;;32.10;18.52;;;11.50;99.90;;;;;;5095619;28;20023;-72
2023/05/26 02:54:33;;;;;;;29.50;19.70;;;11.50;99.90;;;;;;5077364;28;20020;-72
2023/05/26 02:56:59;;;;;;;34.67;19.40;;;11.50;99.90;;;;;;5077232;28;20081;-72
2023/05/26 02:59:25;;;;;;;29.35;19.20;;;11.50;99.90;;;;;;5095274;28;20062;-72
2023/05/26 03:01:50;;;;;;;33.17;19.60;;;11.50;99.90;;;;;;5077409;28;20031;-72
2023/05/26 03:04:16;;;;;;;28.23;17.73;;;11.40;99.90;;;;;;5077222;28;20415;-72
2023/05/26 03:06:41;;;;;;;31.20;18.52;;;11.40;99.90;;;;;;5077167;28;20031;-72
2023/05/26 03:09:08;;;;;;;31.73;18.33;;;11.40;99.90;;;;;;5077089;28;20512;-72
2023/05/26 03:11:33;;;;;;;29.52;17.98;;;11.40;99.90;;;;;;5077032;28;20028;-72
2023/05/26 03:14:00;;;;;;;27.65;17.48;;;11.40;99.90;;;;;;5077079;28;20085;-72
2023/05/26 03:16:25;;;;;;;30.52;18.67;;;11.40;99.90;;;;;;5077580;28;20051;-72
2023/05/26 03:18:51;;;;;;;29.98;17.92;;;11.40;99.90;;;;;;5095147;28;20056;-72
2023/05/26 03:21:18;;;;;;;32.90;17.67;;;11.30;99.90;;;;;;5076753;28;20028;-72
2023/05/26 03:23:44;;;;;;;27.77;18.10;;;11.40;99.90;;;;;;5094942;28;20020;-72
2023/05/26 03:26:10;;;;;;;30.45;16.85;;;11.40;99.90;;;;;;5076670;28;20377;-72
2023/05/26 03:28:36;;;;;;;28.73;17.52;;;11.40;99.90;;;;;;5076699;28;20035;-72
2023/05/26 03:31:02;;;;;;;28.45;18.40;;;11.40;99.90;;;;;;5094962;28;20028;-72
2023/05/26 03:33:28;;;;;;;30.67;17.73;;;11.40;99.90;;;;;;5096447;28;20106;-72
2023/05/26 03:35:54;;;;;;;31.42;18.58;;;11.40;99.90;;;;;;5097166;28;20489;-73
2023/05/26 03:38:20;;;;;;;32.38;18.08;;;11.40;99.90;;;;;;5096968;28;20024;-72
2023/05/26 03:40:46;;;;;;;31.25;16.77;;;11.50;99.90;;;;;;5079032;28;20416;-73
2023/05/26 03:43:11;;;;;;;30.77;16.90;;;11.40;99.90;;;;;;5095840;28;20424;-78
2023/05/26 03:45:37;;;;;;;31.45;17.33;;;11.50;99.90;;;;;;5095118;28;20077;-72
2023/05/26 03:48:03;;;;;;;27.80;18.33;;;11.40;99.90;;;;;;5076786;28;20028;-72
2023/05/26 03:50:28;;;;;;;32.08;17.30;;;11.50;99.90;;;;;;5076354;28;20024;-72
2023/05/26 03:52:54;;;;;;;27.77;17.52;;;11.50;99.90;;;;;;5076759;28;20024;-72
2023/05/26 03:55:20;;;;;;;28.20;17.92;;;11.50;99.90;;;;;;5076278;28;20093;-72
2023/05/26 03:57:46;;;;;;;26.38;17.10;;;11.50;99.90;;;;;;5094621;28;20035;-72
2023/05/26 04:00:12;;;;;;;26.80;16.95;;;11.60;99.90;;;;;;5094760;28;20055;-73
2023/05/26 04:02:37;;;;;;;32.35;18.52;;;11.60;99.90;;;;;;5076348;28;20085;-72
2023/05/26 04:05:03;;;;;;;25.77;17.23;;;11.70;99.90;;;;;;5094545;28;20024;-72
2023/05/26 04:07:29;;;;;;;31.55;18.02;;;11.70;99.90;;;;;;5093833;28;20024;-78
2023/05/26 04:09:55;;;;;;;27.70;17.20;;;11.80;99.90;;;;;;5094093;28;20494;-78
2023/05/26 04:12:20;;;;;;;28.05;15.70;;;11.80;99.90;;;;;;5094102;28;20028;-70
2023/05/26 04:14:47;;;;;;;26.13;16.67;;;11.90;99.90;;;;;;5094073;28;20099;-64
2023/05/26 04:17:13;;;;;;;30.05;16.67;;;11.90;99.90;;;;;;5094331;28;20055;-63
2023/05/26 04:19:39;;;;;;;30.80;17.73;;;12.00;99.90;;;;;;5075975;28;20506;-73
2023/05/26 04:22:05;;;;;;;37.05;17.60;;;12.10;99.90;;;;;;5094381;28;20404;-73
2023/05/26 04:24:31;;;;;;;30.33;17.40;;;12.20;99.90;;;;;;5093845;28;20059;-70
2023/05/26 04:26:57;;;;;;;28.30;17.30;;;12.20;99.90;;;;;;5075792;28;20051;-70
2023/05/26 04:29:23;;;;;;;31.40;17.63;;;12.30;99.90;;;;;;5093821;28;20020;-71
2023/05/26 04:31:50;;;;;;;27.50;17.08;;;12.40;99.90;;;;;;5093774;28;20025;-71
2023/05/26 04:34:21;;;;;;;29.08;17.25;;;12.50;99.90;;;;;;5093787;28;20081;-70
2023/05/26 04:36:48;;;;;;;29.00;16.67;;;12.50;99.90;;;;;;5093749;28;20016;-70
2023/05/26 04:39:15;;;;;;;27.23;15.98;;;12.60;99.90;;;;;;5093776;28;20457;-70
2023/05/26 04:41:41;;;;;;;29.05;16.95;;;12.60;99.90;;;;;;5075506;28;20504;-70
2023/05/26 04:44:07;;;;;;;25.83;17.35;;;12.60;99.90;;;;;;5075637;28;20043;-70
2023/05/26 04:46:37;;;;;;;28.95;16.42;;;12.70;99.90;;;;;;5094139;28;20024;-69
2023/05/26 04:49:03;;;;;;;24.88;15.98;;;12.80;99.90;;;;;;5095421;28;20017;-71
2023/05/26 04:51:32;;;;;;;31.48;16.45;;;12.80;99.90;;;;;;5079508;28;20039;-70
2023/05/26 04:53:58;;;;;;;19.83;12.35;;;12.90;99.90;;;;;;5097710;28;20107;-70
2023/05/26 04:56:24;;;;;;;23.77;15.93;;;13.00;99.90;;;;;;5097657;28;20035;-70
2023/05/26 04:58:49;;;;;;;21.55;15.95;;;13.10;99.90;;;;;;5097796;28;20041;-70
2023/05/26 05:01:17;;;;;;;25.83;17.15;;;13.10;99.90;;;;;;5079351;28;20042;-70
2023/05/26 05:03:43;;;;;;;29.52;15.70;;;13.30;99.90;;;;;;5097560;28;20110;-70
2023/05/26 05:06:10;;;;;;;27.92;15.90;;;13.40;99.90;;;;;;5078906;28;20177;-70
2023/05/26 05:08:37;;;;;;;26.67;15.27;;;13.50;99.90;;;;;;5097556;28;20020;-70
2023/05/26 05:11:03;;;;;;;23.48;15.13;;;13.60;99.90;;;;;;5097397;28;20110;-70
2023/05/26 05:13:29;;;;;;;25.25;15.05;;;13.70;99.90;;;;;;5097149;28;20024;-69
2023/05/26 05:15:55;;;;;;;23.42;14.45;;;13.80;99.90;;;;;;5078746;28;20119;-70
2023/05/26 05:18:20;;;;;;;21.42;13.65;;;13.90;99.90;;;;;;5078982;28;20046;-69
2023/05/26 05:20:46;;;;;;;20.90;13.52;;;14.00;99.90;;;;;;5097153;28;20020;-70
2023/05/26 05:23:12;;;;;;;21.30;14.93;;;14.10;99.90;;;;;;5096848;28;20024;-70
2023/05/26 05:25:37;;;;;;;19.38;13.35;;;14.20;99.90;;;;;;5078939;28;20024;-70
2023/05/26 05:28:03;;;;;;;21.45;13.20;;;14.30;99.90;;;;;;5078837;28;20028;-70
2023/05/26 05:30:29;;;;;;;21.33;14.35;;;14.40;99.90;;;;;;5097115;28;20024;-70
2023/05/26 05:32:55;;;;;;;17.40;12.27;;;14.50;99.90;;;;;;5096954;28;20404;-70
2023/05/26 05:35:20;;;;;;;18.95;12.23;;;14.60;99.90;;;;;;5096743;28;20112;-71
2023/05/26 05:37:46;;;;;;;17.75;12.05;;;14.70;99.90;;;;;;5096838;28;20397;-70
2023/05/26 05:40:12;;;;;;;16.60;11.23;;;14.90;99.90;;;;;;5096850;28;20040;-70
2023/05/26 05:42:38;;;;;;;15.68;11.20;;;14.90;99.90;;;;;;5096894;28;20489;-70
2023/05/26 05:45:05;;;;;;;29.67;10.93;;;15.00;99.90;;;;;;5096078;28;20028;-70
2023/05/26 05:47:30;;;;;;;16.52;9.90;;;15.10;99.90;;;;;;5096254;28;20069;-70
2023/05/26 05:49:56;;;;;;;14.73;9.80;;;15.20;99.90;;;;;;5096715;28;20024;-70
2023/05/26 05:52:22;;;;;;;17.15;10.18;;;15.30;99.90;;;;;;5096648;28;20028;-71
2023/05/26 05:54:47;;;;;;;16.85;10.30;;;15.40;99.90;;;;;;5096542;28;20063;-70
2023/05/26 05:57:13;;;;;;;15.43;9.20;;;15.40;99.90;;;;;;5078004;28;20128;-70
2023/05/26 05:59:39;;;;;;;15.63;9.98;;;15.50;99.90;;;;;;5095969;28;20054;-70
2023/05/26 06:02:05;;;;;;;14.40;10.38;;;15.50;99.90;;;;;;5096370;28;20028;-69
2023/05/26 06:04:30;;;;;;;14.02;9.98;;;15.60;99.90;;;;;;5078301;28;20042;-70
2023/05/26 06:06:56;;;;;;;19.73;9.38;;;15.80;99.90;;;;;;5096691;28;20024;-70
2023/05/26 06:09:22;;;;;;;12.63;8.80;;;16.10;99.90;;;;;;5095996;28;20478;-70
2023/05/26 06:11:48;;;;;;;15.70;9.60;;;16.20;99.90;;;;;;5096330;28;20060;-70
2023/05/26 06:14:13;;;;;;;15.45;9.15;;;16.40;99.90;;;;;;5095970;28;20032;-70
2023/05/26 06:16:39;;;;;;;16.42;9.25;;;16.70;99.90;;;;;;5078099;28;20054;-70
2023/05/26 06:19:05;;;;;;;13.00;8.95;;;16.90;99.90;;;;;;5077988;28;20047;-70
2023/05/26 06:21:31;;;;;;;15.43;8.60;;;17.10;99.90;;;;;;5096048;28;20038;-70
2023/05/26 06:23:57;;;;;;;14.95;9.25;;;17.10;99.90;;;;;;5077874;28;20028;-70
2023/05/26 06:26:23;;;;;;;14.65;8.82;;;17.00;99.90;;;;;;5095714;28;20530;-70
2023/05/26 06:28:48;;;;;;;13.57;8.88;;;17.10;99.90;;;;;;5095626;28;20099;-70
2023/05/26 06:31:15;;;;;;;12.02;8.43;;;17.30;99.90;;;;;;5095887;28;20053;-70
2023/05/26 06:33:41;;;;;;;13.40;8.73;;;17.60;99.90;;;;;;5095632;28;20059;-71
2023/05/26 06:36:07;;;;;;;11.40;8.30;;;17.80;99.90;;;;;;5095895;28;20530;-71
2023/05/26 06:38:33;;;;;;;10.52;8.05;;;18.00;99.90;;;;;;5077486;28;20032;-71
2023/05/26 06:40:58;;;;;;;13.75;7.55;;;18.10;99.90;;;;;;5095373;28;20059;-71
2023/05/26 06:43:24;;;;;;;12.20;7.78;;;18.40;99.90;;;;;;5077877;28;20032;-71
2023/05/26 06:45:50;;;;;;;12.82;7.28;;;18.60;99.90;;;;;;5095873;28;20020;-71
2023/05/26 06:48:15;;;;;;;10.68;8.15;;;18.90;99.90;;;;;;5078234;28;20440;-71
2023/05/26 06:50:41;;;;;;;12.52;8.35;;;18.80;99.90;;;;;;5095512;28;20032;-71
2023/05/26 06:53:07;;;;;;;10.55;7.57;;;18.80;99.90;;;;;;5095728;28;20426;-71
2023/05/26 06:55:32;;;;;;;11.88;7.70;;;18.60;99.90;;;;;;5095157;28;20020;-70
2023/05/26 06:57:58;;;;;;;10.98;7.20;;;18.50;99.90;;;;;;5095714;28;20024;-70
2023/05/26 07:00:24;;;;;;;12.18;7.22;;;18.60;99.90;;;;;;5077120;28;20040;-71
2023/05/26 07:02:50;;;;;;;10.73;8.00;;;18.80;99.90;;;;;;5095205;28;20023;-71
2023/05/26 07:05:15;;;;;;;10.70;7.07;;;19.00;99.90;;;;;;5077172;28;20024;-70
2023/05/26 07:07:41;;;;;;;9.77;7.32;;;19.30;99.90;;;;;;5095477;28;20103;-71
2023/05/26 07:10:07;;;;;;;10.00;8.25;;;19.60;99.90;;;;;;5095224;28;20521;-71
2023/05/26 07:12:33;;;;;;;9.40;7.18;;;19.70;99.90;;;;;;5075859;28;20400;-71
2023/05/26 07:14:58;;;;;;;11.82;7.80;;;19.90;99.90;;;;;;5076858;28;20020;-70
2023/05/26 07:17:24;;;;;;;13.10;7.47;;;19.90;99.90;;;;;;5094661;28;20072;-70
2023/05/26 07:19:50;;;;;;;10.35;8.02;;;19.70;99.90;;;;;;5076729;28;20466;-70
2023/05/26 07:22:15;;;;;;;12.48;7.72;;;19.40;99.90;;;;;;5076809;28;20032;-70
2023/05/26 07:24:41;;;;;;;9.63;7.28;;;19.20;99.90;;;;;;5094902;28;20363;-70
2023/05/26 07:27:07;;;;;;;8.70;6.38;;;19.30;99.90;;;;;;5095214;28;20024;-70
2023/05/26 07:29:33;;;;;;;13.73;7.38;;;19.50;99.90;;;;;;5076526;28;20024;-70
2023/05/26 07:31:59;;;;;;;12.05;7.20;;;19.80;99.90;;;;;;5076480;28;20024;-70
2023/05/26 07:34:24;;;;;;;15.65;7.90;;;19.80;99.90;;;;;;5094667;28;20031;-70
2023/05/26 07:36:50;;;;;;;9.60;6.55;;;20.10;99.90;;;;;;5076527;28;20077;-70
2023/05/26 07:39:16;;;;;;;10.35;6.85;;;20.60;99.90;;;;;;5076233;28;20424;-70
2023/05/26 07:41:41;;;;;;;13.68;7.10;;;20.70;99.90;;;;;;5094955;28;20069;-71
2023/05/26 07:44:07;;;;;;;9.73;7.03;;;20.70;99.30;;;;;;5094583;28;20073;-70
2023/05/26 07:46:33;;;;;;;12.60;6.28;;;20.80;99.30;;;;;;5094781;28;20107;-70
2023/05/26 07:48:58;;;;;;;11.95;7.32;;;20.70;98.20;;;;;;5094433;28;20102;-71
2023/05/26 07:51:24;;;;;;;11.30;6.32;;;20.90;98.00;;;;;;5094580;28;20058;-71
2023/05/26 07:53:50;;;;;;;8.50;6.28;;;21.10;98.10;;;;;;5094350;28;20020;-71
2023/05/26 07:56:15;;;;;;;11.10;5.82;;;20.90;98.00;;;;;;5094298;28;20093;-71
2023/05/26 07:58:41;;;;;;;12.90;5.50;;;21.00;97.40;;;;;;5093759;28;20132;-71
2023/05/26 08:01:07;;;;;;;9.23;5.65;;;21.20;97.70;;;;;;5094196;28;20476;-71
2023/05/26 08:03:33;;;;;;;9.20;6.03;;;21.30;97.20;;;;;;5093853;28;20036;-71
2023/05/26 08:05:59;;;;;;;10.95;6.38;;;21.30;96.10;;;;;;5094205;28;20024;-71
2023/05/26 08:08:25;;;;;;;15.25;6.35;;;21.10;96.40;;;;;;5094126;28;20098;-70
2023/05/26 08:10:51;;;;;;;8.93;6.57;;;21.00;96.10;;;;;;5075811;28;20051;-70
2023/05/26 08:13:16;;;;;;;9.73;5.82;;;20.50;96.80;;;;;;5094175;28;20020;-73
2023/05/26 08:15:42;;;;;;;10.25;5.53;;;20.60;97.50;;;;;;5076472;28;20073;-71
2023/05/26 08:18:08;;;;;;;9.68;5.95;;;20.90;97.00;;;;;;5076465;28;20024;-71
2023/05/26 08:20:34;;;;;;;7.80;5.80;;;20.80;96.60;;;;;;5094185;28;20016;-71
2023/05/26 08:22:59;;;;;;;10.85;6.18;;;20.80;96.10;;;;;;5093874;28;20119;-71
2023/05/26 08:25:26;;;;;;;10.32;5.80;;;21.10;96.60;;;;;;5093880;28;20020;-71
2023/05/26 08:27:52;;;;;;;6.55;5.45;;;21.60;95.50;;;;;;5075715;28;20055;-71
2023/05/26 08:30:18;;;;;;;8.43;6.18;;;22.20;93.60;;;;;;5075694;28;20028;-71
2023/05/26 08:32:43;;;;;;;9.68;5.32;;;22.80;93.00;;;;;;5075511;28;20028;-71
2023/05/26 08:35:09;;;;;;;9.15;6.25;;;23.00;91.90;;;;;;5093394;28;20024;-71
2023/05/26 08:37:35;;;;;;;11.20;6.30;;;22.20;91.70;;;;;;5094034;28;20060;-71
2023/05/26 08:40:02;;;;;;;10.63;6.18;;;21.30;93.50;;;;;;5075673;28;20024;-70
2023/05/26 08:42:32;;;;;;;8.57;5.78;;;20.80;94.40;;;;;;5093703;28;20024;-71
2023/05/26 08:44:58;;;;;;;8.75;5.40;;;20.70;95.40;;;;;;5075507;28;20032;-71
2023/05/26 08:47:24;;;;;;;10.27;5.85;;;21.20;94.80;;;;;;5075696;28;20031;-71
2023/05/26 08:49:57;;;;;;;9.68;5.53;;;21.40;93.70;;;;;;5094105;28;20370;-71
2023/05/26 08:52:23;;;;;;;7.43;5.45;;;21.40;93.10;;;;;;5094238;28;20135;-71
2023/05/26 08:54:50;;;;;;;11.18;5.20;;;21.50;93.10;;;;;;5093812;28;20024;-71
2023/05/26 08:57:18;;;;;;;9.90;5.20;;;21.50;91.90;;;;;;5093520;28;20027;-71
2023/05/26 08:59:46;;;;;;;8.23;5.05;;;21.20;92.40;;;;;;5074941;28;20496;-71
2023/05/26 09:02:12;;;;;;;12.93;4.43;;;21.10;92.70;;;;;;5075315;28;20480;-70
2023/05/26 09:04:38;;;;;;;10.15;4.63;;;20.90;93.70;;;;;;5075351;28;20028;-70
2023/05/26 09:07:08;;;;;;;9.40;4.78;;;21.00;93.60;;;;;;5075313;28;20024;-70
2023/05/26 09:09:33;;;;;;;10.73;5.70;;;21.10;94.20;;;;;;5093471;28;20029;-71
2023/05/26 09:11:59;;;;;;;6.97;4.80;;;21.50;92.50;;;;;;5093084;28;20036;-71
2023/05/26 09:14:25;;;;;;;8.95;5.35;;;21.40;91.60;;;;;;5093514;28;20024;-70
2023/05/26 09:16:54;;;;;;;6.93;4.65;;;21.70;91.60;;;;;;5093105;28;20032;-71
2023/05/26 09:19:20;;;;;;;15.75;4.78;;;22.10;91.40;;;;;;5093244;28;20058;-70
2023/05/26 09:21:50;;;;;;;8.23;5.15;;;22.30;91.00;;;;;;5075059;28;20059;-71
2023/05/26 09:24:18;;;;;;;8.52;4.82;;;22.20;90.20;;;;;;5093307;28;20051;-71
2023/05/26 09:26:45;;;;;;;9.00;5.40;;;21.60;90.40;;;;;;5075549;28;20404;-71
2023/05/26 09:29:12;;;;;;;9.93;5.90;;;21.00;91.70;;;;;;5075181;28;20105;-70
2023/05/26 09:31:45;;;;;;;12.77;5.30;;;20.70;92.20;;;;;;5092981;28;20031;-70
2023/05/26 09:34:12;;;;;;;8.30;4.90;;;20.50;93.50;;;;;;5093341;28;20036;-71
2023/05/26 09:36:39;;;;;;;7.63;4.80;;;21.20;92.60;;;;;;5096872;28;20103;-71
2023/05/26 09:39:11;;;;;;;9.25;4.53;;;21.90;91.00;;;;;;5078449;28;20024;-71
2023/05/26 09:41:44;;;;;;;7.78;5.15;;;22.20;89.80;;;;;;5096999;28;20024;-71
2023/05/26 09:44:15;;;;;;;10.27;4.85;;;23.00;89.00;;;;;;5096875;28;20114;-71
2023/05/26 09:46:44;;;;;;;15.32;5.15;;;24.10;84.10;;;;;;5078613;28;20036;-71
2023/05/26 09:49:12;;;;;;;8.48;4.60;;;24.70;80.40;;;;;;5096464;28;20563;-71
2023/05/26 09:51:40;;;;;;;8.43;5.03;;;24.70;80.00;;;;;;5096690;28;20028;-71
2023/05/26 09:54:06;;;;;;;6.38;4.20;;;24.30;79.30;;;;;;5078156;28;20032;-71
2023/05/26 09:56:34;;;;;;;5.65;4.20;;;24.30;79.20;;;;;;5096493;28;20039;-71
2023/05/26 09:59:06;;;;;;;8.60;5.05;;;25.40;76.20;;;;;;5078054;28;20542;-71
2023/05/26 10:01:36;;;;;;;10.63;4.82;;;26.20;74.00;;;;;;5096730;28;20036;-71
2023/05/26 10:04:06;;;;;;;7.45;5.13;;;26.80;69.80;;;;;;5078891;28;20032;-71
2023/05/26 10:06:34;;;;;;;10.27;4.53;;;26.80;66.60;;;;;;5078359;28;20027;-71
2023/05/26 10:09:01;;;;;;;7.25;4.55;;;26.00;67.00;;;;;;5078250;28;20393;-71
2023/05/26 10:11:29;;;;;;;7.13;4.55;;;24.70;69.30;;;;;;5096374;28;20114;-71
2023/05/26 10:13:56;;;;;;;9.52;4.53;;;24.20;72.00;;;;;;5078333;28;20381;-71
2023/05/26 10:16:23;;;;;;;8.38;4.65;;;24.30;71.80;;;;;;5077961;28;20065;-71
2023/05/26 10:18:50;;;;;;;8.73;5.03;;;24.70;70.00;;;;;;5078346;28;20575;-71
2023/05/26 10:21:21;;;;;;;10.07;4.88;;;24.80;69.50;;;;;;5077826;28;20031;-71
2023/05/26 10:24:23;;;;;;;9.82;5.07;;;25.20;66.80;;;;;;5096155;28;20054;-71
2023/05/26 10:27:21;;;;;;;9.48;4.60;;;25.10;66.90;;;;;;5073893;28;20040;-71
2023/05/26 10:30:00;;;;;;;10.57;5.28;;;24.70;68.90;;;;;;5091141;28;20111;-71
2023/05/26 10:32:45;;;;;;;7.72;4.57;;;24.40;69.20;;;;;;5077925;28;20070;-71
2023/05/26 10:35:31;;;;;;;7.43;4.53;;;23.90;70.80;;;;;;5095831;28;20024;-71
2023/05/26 10:38:03;;;;;;;9.18;4.95;;;24.30;70.90;;;;;;5096141;28;20382;-71
2023/05/26 10:40:50;;;;;;;6.72;4.68;;;24.30;68.90;;;;;;5077636;28;20024;-71
2023/05/26 10:43:23;;;;;;;6.93;4.60;;;24.30;69.70;;;;;;5077547;28;20032;-71
2023/05/26 10:45:58;;;;;;;7.90;4.50;;;24.50;69.50;;;;;;5077439;28;20028;-71
2023/05/26 10:48:56;;;;;;;6.63;4.55;;;25.20;66.60;;;;;;5077474;28;20028;-71
2023/05/26 10:51:28;;;;;;;8.23;5.28;;;25.40;65.00;;;;;;5077757;28;20048;-71
2023/05/26 10:53:56;;;;;;;5.50;4.28;;;25.00;65.60;;;;;;5095471;28;20085;-71
2023/05/26 10:56:33;;;;;;;5.80;4.40;;;24.80;66.40;;;;;;5077342;28;20035;-70
2023/05/26 10:58:59;;;;;;;10.68;5.15;;;25.00;67.10;;;;;;5095600;28;20052;-70
2023/05/26 11:01:32;;;;;;;10.05;4.93;;;25.40;66.20;;;;;;5095304;28;20119;-70
2023/05/26 11:04:12;;;;;;;9.63;4.95;;;25.30;66.40;;;;;;5095558;28;20034;-70
2023/05/26 11:07:00;;;;;;;9.35;5.07;;;24.90;66.20;;;;;;5077101;28;20016;-70
2023/05/26 11:09:27;;;;;;;10.68;5.25;;;25.00;66.00;;;;;;5095288;28;20024;-71
2023/05/26 11:12:03;;;;;;;8.38;4.88;;;24.50;66.90;;;;;;5095049;28;20059;-70
2023/05/26 11:14:34;;;;;;;6.07;4.95;;;24.60;69.70;;;;;;5095160;28;20029;-70
2023/05/26 11:17:03;;;;;;;8.88;4.95;;;25.00;66.80;;;;;;5095140;28;20101;-70
2023/05/26 11:19:30;;;;;;;;;;;25.10;65.50;;;;;;5095447;28;20028;-70
2023/05/26 11:22:01;;;;;;;8.00;4.63;;;25.10;67.10;;;;;;5094941;28;20273;-70
2023/05/26 11:24:26;;;;;;;6.43;4.82;;;25.20;66.50;;;;;;5077046;28;20032;-70
2023/05/26 11:26:52;;;;;;;8.25;4.70;;;25.60;65.70;;;;;;5094679;28;20358;-71
2023/05/26 11:29:22;;;;;;;9.77;4.32;;;26.30;63.40;;;;;;5094891;28;20465;-71
2023/05/26 11:31:49;;;;;;;9.23;4.75;;;26.90;64.00;;;;;;5076815;28;20028;-71
2023/05/26 11:34:14;;;;;;;7.85;4.60;;;27.20;60.10;;;;;;5076611;28;20062;-71
2023/05/26 11:36:44;;;;;;;7.82;5.45;;;27.10;59.80;;;;;;5094457;28;20028;-71
2023/05/26 11:39:11;;;;;;;8.55;5.22;;;27.10;61.00;;;;;;5094821;28;20048;-71
2023/05/26 11:41:37;;;;;;;9.20;4.97;;;26.90;59.30;;;;;;5076367;28;20035;-71
2023/05/26 11:44:08;;;;;;;6.35;4.70;;;26.10;60.00;;;;;;5076697;28;20032;-71
2023/05/26 11:46:37;;;;;;;7.18;4.88;;;26.40;60.60;;;;;;5076529;28;20460;-71
2023/05/26 11:49:02;;;;;;;;;;;26.50;58.80;;;;;;5076598;28;20020;-71
2023/05/26 11:51:28;;;;;;;5.93;4.68;;;27.20;57.70;;;;;;5094156;28;20273;-71
2023/05/26 11:53:57;;;;;;;9.45;4.78;;;28.20;55.00;;;;;;5094142;28;20055;-71
2023/05/26 11:56:32;;;;;;;7.82;4.68;;;29.10;55.10;;;;;;5094445;28;20028;-71
2023/05/26 11:59:00;;;;;;;7.35;4.40;;;30.00;53.50;;;;;;5075643;28;20044;-71
2023/05/26 12:01:26;;;;;;;8.53;4.13;;;30.10;51.80;;;;;;5094232;28;20032;-71
2023/05/26 12:03:52;;;;;;;6.45;4.60;;;30.00;49.80;;;;;;5094450;28;20043;-71
2023/05/26 12:06:18;;;;;;;9.30;4.78;;;28.20;51.30;;;;;;5075727;28;20429;-71
2023/05/26 12:08:43;;;;;;;8.82;4.75;;;26.90;54.40;;;;;;5094361;28;20027;-71
2023/05/26 12:11:23;;;;;;;7.95;4.65;;;26.50;56.30;;;;;;5076298;28;20111;-71
2023/05/26 12:14:04;;;;;;;7.50;4.53;;;27.40;54.90;;;;;;5076446;28;20045;-71
2023/05/26 12:16:37;;;;;;;8.00;4.53;;;28.20;54.30;;;;;;5093865;28;20382;-72
2023/05/26 12:19:06;;;;;;;5.30;4.05;;;29.40;52.50;;;;;;5094269;28;20024;-65
2023/05/26 12:21:44;;;;;;;6.95;4.50;;;29.60;53.50;;;;;;5093904;28;20153;-64
2023/05/26 12:24:11;;;;;;;9.68;4.72;;;29.90;49.60;;;;;;5093939;28;20057;-66
2023/05/26 12:26:37;;;;;;;6.68;4.05;;;29.60;49.10;;;;;;5093834;28;20032;-66
2023/05/26 12:29:09;;;;;;;5.05;3.90;;;29.50;48.60;;;;;;5093897;28;20058;-66
2023/05/26 12:31:51;;;;;;;7.18;3.75;;;29.40;49.30;;;;;;5093832;28;20077;-74
2023/05/26 12:34:23;;;;;;;6.25;4.38;;;29.50;48.40;;;;;;5076139;28;20024;-74
2023/05/26 12:36:50;;;;;;;6.75;3.83;;;29.80;46.90;;;;;;5075708;28;20024;-74
2023/05/26 12:39:17;;;;;;;6.28;4.63;;;29.90;46.80;;;;;;5093770;28;20166;-75